Time;durP1;ratioP1;P1;durP2;ratioP2;P2;SDS_P1;SDS_P2;PMS_P1;PMS_P2;Temp;Humidity;BMP_temperature;BMP_pressure;BME280_temperature;BME280_humidity;BME280_pressure;Samples;Min_cycle;Max_cycle;Signal;HPM_P1;HPM_P2
2022/10/26 06:05:04;;;;;;;7.88;2.63;;;16.30;99.90;;;;;;5103664;23;20282;-86
2022/10/26 06:07:32;;;;;;;11.10;2.28;;;16.20;99.90;;;;;;4903336;29;20048;-85
2022/10/26 06:09:59;;;;;;;12.88;2.83;;;16.20;99.90;;;;;;4909657;29;20060;-86
2022/10/26 06:12:25;;;;;;;7.45;1.63;;;16.20;99.90;;;;;;4907947;29;20064;-87
2022/10/26 06:14:52;;;;;;;6.40;1.80;;;16.10;99.90;;;;;;4885743;29;20057;-83
2022/10/26 06:17:41;;;;;;;6.97;2.30;;;16.10;99.90;;;;;;4890883;29;20056;-83
2022/10/26 06:20:22;;;;;;;10.85;2.70;;;16.10;99.90;;;;;;4888125;29;20482;-83
2022/10/26 06:23:00;;;;;;;7.28;1.85;;;16.10;99.90;;;;;;4885693;29;20049;-85
2022/10/26 06:25:33;;;;;;;12.63;2.22;;;16.00;99.90;;;;;;4884960;29;20053;-86
2022/10/26 06:28:18;;;;;;;5.72;2.25;;;16.00;99.90;;;;;;4886212;29;20104;-86
2022/10/26 06:30:45;;;;;;;8.30;2.08;;;16.00;99.90;;;;;;4873115;29;20046;-86
2022/10/26 06:33:13;;;;;;;9.02;2.00;;;16.10;99.90;;;;;;4887127;29;20059;-85
2022/10/26 06:36:16;;;;;;;11.43;1.88;;;16.10;99.90;;;;;;4887036;29;20049;-87
2022/10/26 06:38:44;;;;;;;9.85;1.95;;;16.10;99.90;;;;;;4905412;29;20032;-86
2022/10/26 06:41:17;;;;;;;6.68;2.05;;;16.20;99.90;;;;;;4903211;29;20055;-86
2022/10/26 06:43:44;;;;;;;13.77;2.63;;;16.30;99.90;;;;;;4912246;29;20041;-86
2022/10/26 06:46:30;;;;;;;8.27;1.65;;;16.30;99.90;;;;;;4911813;29;20056;-86
2022/10/26 06:49:19;;;;;;;5.65;1.40;;;16.30;99.90;;;;;;4911931;29;20041;-86
2022/10/26 06:51:53;;;;;;;6.20;1.70;;;16.40;99.90;;;;;;4923958;29;20051;-86
2022/10/26 06:54:30;;;;;;;9.55;2.30;;;16.40;99.90;;;;;;4886931;29;20054;-85
2022/10/26 06:56:57;;;;;;;6.20;1.85;;;16.40;99.90;;;;;;4895058;29;20150;-87
2022/10/26 06:59:35;;;;;;;10.85;1.95;;;16.50;99.90;;;;;;4903930;29;20057;-84
2022/10/26 07:02:02;;;;;;;7.07;2.00;;;16.60;99.90;;;;;;4897658;29;20048;-86
2022/10/26 07:04:32;;;;;;;6.32;1.75;;;16.70;99.90;;;;;;4885251;29;20068;-85
2022/10/26 07:06:58;;;;;;;8.60;1.90;;;16.70;99.90;;;;;;4885285;29;20053;-85
2022/10/26 07:09:25;;;;;;;5.28;2.13;;;16.80;99.90;;;;;;4889874;29;20080;-84
2022/10/26 07:11:52;;;;;;;7.00;2.22;;;16.80;99.90;;;;;;4902839;29;20683;-85
2022/10/26 07:14:19;;;;;;;9.40;2.40;;;16.80;99.90;;;;;;4896272;29;20049;-85
2022/10/26 07:16:45;;;;;;;6.25;1.70;;;16.90;99.90;;;;;;4893336;29;20061;-87
2022/10/26 07:19:12;;;;;;;7.07;1.75;;;16.90;99.90;;;;;;4887699;29;20102;-84
2022/10/26 07:21:38;;;;;;;4.10;2.03;;;17.00;99.90;;;;;;4901377;29;20048;-85
2022/10/26 07:24:05;;;;;;;8.38;2.08;;;17.10;99.90;;;;;;4894566;29;20060;-84
2022/10/26 07:26:32;;;;;;;5.75;1.85;;;17.20;99.90;;;;;;4891619;29;20057;-85
2022/10/26 07:28:59;;;;;;;13.20;2.20;;;17.30;99.90;;;;;;4888100;29;20053;-85
2022/10/26 07:31:26;;;;;;;9.30;2.25;;;17.40;99.90;;;;;;4893302;29;20064;-86
2022/10/26 07:33:53;;;;;;;9.88;2.17;;;17.40;99.90;;;;;;4898015;29;20426;-85
2022/10/26 07:36:20;;;;;;;10.20;2.13;;;17.50;99.90;;;;;;4880025;29;20059;-86
2022/10/26 07:38:49;;;;;;;7.75;2.20;;;17.60;99.90;;;;;;4887543;29;20046;-85
2022/10/26 07:41:16;;;;;;;11.35;2.15;;;17.70;99.90;;;;;;4882929;29;20407;-85
2022/10/26 07:43:44;;;;;;;13.38;2.85;;;17.70;99.90;;;;;;4888368;29;20064;-82
2022/10/26 07:46:11;;;;;;;5.50;1.77;;;17.80;99.90;;;;;;4885332;29;20079;-82
2022/10/26 07:48:40;;;;;;;10.55;2.97;;;17.90;99.90;;;;;;4886628;29;20431;-83
2022/10/26 07:51:07;;;;;;;9.77;2.00;;;17.90;99.90;;;;;;4882598;29;20141;-82
2022/10/26 07:53:33;;;;;;;10.32;2.13;;;17.90;99.90;;;;;;4896151;29;20056;-83
2022/10/26 07:56:00;;;;;;;8.88;2.55;;;17.90;99.90;;;;;;4889636;29;20060;-83
2022/10/26 07:58:27;;;;;;;7.90;2.17;;;18.00;99.90;;;;;;4891778;29;20049;-83
2022/10/26 08:00:54;;;;;;;12.98;2.10;;;18.00;99.90;;;;;;4886451;29;20128;-82
2022/10/26 08:03:21;;;;;;;12.32;2.63;;;18.10;99.90;;;;;;4890747;29;20056;-82
2022/10/26 08:05:54;;;;;;;10.93;3.03;;;18.20;99.90;;;;;;4896574;29;20060;-82
2022/10/26 08:08:21;;;;;;;8.55;2.58;;;18.30;99.90;;;;;;4892282;29;20053;-83
2022/10/26 08:10:48;;;;;;;11.75;2.65;;;18.40;99.90;;;;;;4885911;29;20510;-83
2022/10/26 08:13:15;;;;;;;14.10;3.15;;;18.40;99.90;;;;;;4885406;29;20475;-83
2022/10/26 08:15:41;;;;;;;10.25;2.33;;;18.50;99.90;;;;;;4887562;29;20056;-83
2022/10/26 08:18:08;;;;;;;10.15;2.38;;;18.60;99.90;;;;;;4889554;29;20049;-83
2022/10/26 08:20:35;;;;;;;8.73;2.15;;;18.60;99.90;;;;;;4888953;29;20117;-83
2022/10/26 08:23:05;;;;;;;14.13;2.85;;;18.60;99.90;;;;;;4880012;29;20056;-83
2022/10/26 08:25:32;;;;;;;11.70;2.92;;;18.70;99.90;;;;;;4894662;29;20429;-83
2022/10/26 08:28:03;;;;;;;12.15;3.33;;;18.80;99.90;;;;;;4876852;29;20055;-83
2022/10/26 08:30:30;;;;;;;11.10;2.70;;;18.70;99.90;;;;;;4884969;29;20059;-83
2022/10/26 08:32:59;;;;;;;10.55;2.30;;;18.80;99.90;;;;;;4881906;29;20057;-83
2022/10/26 08:35:25;;;;;;;11.65;2.22;;;18.90;99.90;;;;;;4881524;29;20052;-82
2022/10/26 08:37:52;;;;;;;15.15;3.10;;;18.90;99.90;;;;;;4886941;29;20076;-84
2022/10/26 08:40:24;;;;;;;10.40;2.42;;;19.00;99.90;;;;;;4888272;29;20451;-83
2022/10/26 08:42:56;;;;;;;14.50;2.95;;;19.00;99.90;;;;;;4881024;29;20081;-83
2022/10/26 08:45:28;;;;;;;12.85;2.33;;;19.10;99.90;;;;;;4879742;29;20064;-83
2022/10/26 08:48:08;;;;;;;14.20;3.30;;;19.10;99.90;;;;;;4883832;29;20108;-81
2022/10/26 08:50:41;;;;;;;12.02;3.03;;;19.20;99.90;;;;;;4887110;29;20053;-83
2022/10/26 08:53:25;;;;;;;13.60;2.50;;;19.20;99.90;;;;;;4881075;29;20060;-83
2022/10/26 08:56:14;;;;;;;14.88;2.63;;;19.20;99.90;;;;;;4879745;29;20049;-83
2022/10/26 08:59:05;;;;;;;5.82;2.13;;;19.20;99.90;;;;;;4875499;29;20071;-82
2022/10/26 09:01:33;;;;;;;6.53;2.17;;;19.30;99.90;;;;;;4886680;29;20053;-82
2022/10/26 09:04:02;;;;;;;11.23;2.33;;;19.30;99.90;;;;;;4882444;29;20143;-83
2022/10/26 09:06:36;;;;;;;11.30;2.80;;;19.30;99.90;;;;;;4878767;29;20601;-83
2022/10/26 09:09:15;;;;;;;15.73;3.45;;;19.40;99.90;;;;;;4886806;29;20056;-83
2022/10/26 09:12:31;;;;;;;13.23;3.08;;;19.40;99.90;;;;;;4883793;29;20045;-82
2022/10/26 09:15:07;;;;;;;16.77;3.17;;;19.40;99.90;;;;;;4841616;29;20444;-83
2022/10/26 09:17:57;;;;;;;17.48;2.35;;;19.50;99.90;;;;;;4822292;29;20049;-84
2022/10/26 09:20:43;;;;;;;8.30;2.35;;;19.50;99.90;;;;;;4882370;29;20052;-83
2022/10/26 09:23:31;;;;;;;9.25;2.28;;;19.50;99.90;;;;;;4882935;29;20423;-81
2022/10/26 09:26:00;;;;;;;11.95;2.35;;;19.60;99.90;;;;;;4878245;29;20180;-82
2022/10/26 09:28:35;;;;;;;15.82;3.10;;;19.60;99.90;;;;;;4879522;29;20045;-82
2022/10/26 09:31:03;;;;;;;13.90;2.67;;;19.60;99.90;;;;;;4883916;29;20053;-81
2022/10/26 09:33:35;;;;;;;12.45;2.75;;;19.60;99.90;;;;;;4882814;29;20071;-82
2022/10/26 09:36:22;;;;;;;13.30;3.33;;;19.60;99.90;;;;;;4882221;29;20056;-82
2022/10/26 09:39:03;;;;;;;14.30;3.20;;;19.60;99.90;;;;;;4877852;29;20057;-83
2022/10/26 09:41:41;;;;;;;;;;;19.60;99.90;;;;;;4886147;29;20057;-82
2022/10/26 09:44:33;;;;;;;9.55;2.28;;;19.60;99.90;;;;;;4879432;29;19927;-82
2022/10/26 09:47:30;;;;;;;17.77;3.78;;;19.50;99.90;;;;;;4882679;29;20057;-82
2022/10/26 09:50:27;;;;;;;9.63;2.83;;;19.50;99.90;;;;;;4876357;29;20052;-82
2022/10/26 09:52:54;;;;;;;17.35;3.50;;;19.50;99.90;;;;;;4884595;29;20045;-82
2022/10/26 09:55:21;;;;;;;11.98;3.20;;;19.50;99.90;;;;;;4888866;29;20045;-82
2022/10/26 09:57:53;;;;;;;9.65;2.72;;;19.50;99.90;;;;;;4918192;23;20056;-82
2022/10/26 10:00:21;;;;;;;21.70;4.30;;;19.40;99.90;;;;;;4899002;29;20056;-84
2022/10/26 10:02:53;;;;;;;11.32;2.88;;;19.40;99.90;;;;;;4900403;29;20053;-83
2022/10/26 10:05:34;;;;;;;15.73;2.95;;;19.30;99.90;;;;;;4897479;29;20088;-81
2022/10/26 10:08:23;;;;;;;11.02;2.83;;;19.40;99.90;;;;;;4898894;29;20072;-83
2022/10/26 10:11:02;;;;;;;11.77;3.08;;;19.40;99.90;;;;;;4902388;29;20059;-82
2022/10/26 10:13:31;;;;;;;15.07;3.30;;;19.40;99.90;;;;;;4899426;29;20056;-81
2022/10/26 10:16:03;;;;;;;22.10;4.80;;;19.40;99.90;;;;;;4902207;29;20064;-82
2022/10/26 10:18:31;;;;;;;13.45;5.13;;;19.40;99.90;;;;;;4899067;29;20112;-82
2022/10/26 10:20:58;;;;;;;13.73;3.10;;;19.40;99.90;;;;;;4901874;29;20060;-81
2022/10/26 10:23:27;;;;;;;11.70;3.35;;;19.40;99.90;;;;;;4901667;29;20068;-83
2022/10/26 10:26:07;;;;;;;15.95;3.47;;;19.50;99.90;;;;;;4902562;29;20056;-81
2022/10/26 10:28:34;;;;;;;;;;;19.40;99.90;;;;;;4902975;29;20411;-80
2022/10/26 10:31:17;;;;;;;16.40;3.88;;;19.40;99.90;;;;;;4895121;29;20336;-84
2022/10/26 10:33:44;;;;;;;16.50;3.67;;;19.40;99.90;;;;;;4899657;29;20060;-86
2022/10/26 10:36:20;;;;;;;13.68;3.38;;;19.40;99.90;;;;;;4901164;29;20525;-82
2022/10/26 10:38:49;;;;;;;15.98;4.22;;;19.40;99.90;;;;;;4902105;29;20064;-86
2022/10/26 10:41:35;;;;;;;11.80;3.38;;;19.40;99.90;;;;;;4902198;29;20086;-85
2022/10/26 10:44:21;;;;;;;14.55;3.40;;;19.40;99.90;;;;;;4900414;29;20522;-82
2022/10/26 10:46:48;;;;;;;15.40;3.83;;;19.50;99.90;;;;;;4900950;29;20085;-83
2022/10/26 10:49:22;;;;;;;15.68;4.00;;;19.50;99.90;;;;;;4903211;29;20085;-81
2022/10/26 10:51:49;;;;;;;12.98;3.03;;;19.50;99.90;;;;;;4905658;29;20056;-82
2022/10/26 10:54:37;;;;;;;14.73;3.85;;;19.50;99.90;;;;;;4905647;29;20057;-81
2022/10/26 10:57:38;;;;;;;14.70;3.08;;;19.50;99.90;;;;;;4904117;29;20049;-82
2022/10/26 11:00:08;;;;;;;11.95;3.45;;;19.50;99.90;;;;;;4904441;29;20059;-82
2022/10/26 11:02:53;;;;;;;18.60;4.07;;;19.50;99.90;;;;;;4905069;29;20048;-80
2022/10/26 11:05:28;;;;;;;15.85;2.95;;;19.60;99.90;;;;;;4898727;29;20057;-82
2022/10/26 11:08:07;;;;;;;12.88;3.72;;;19.60;99.90;;;;;;4904512;29;20045;-81
2022/10/26 11:10:38;;;;;;;18.27;3.38;;;19.60;99.90;;;;;;4905185;29;20048;-83
2022/10/26 11:13:40;;;;;;;15.85;3.80;;;19.60;99.90;;;;;;4910056;29;20044;-83
2022/10/26 11:16:13;;;;;;;12.98;3.75;;;19.60;99.90;;;;;;4889060;29;20061;-80
2022/10/26 11:19:09;;;;;;;14.77;2.58;;;19.60;99.90;;;;;;4909719;29;20060;-82
2022/10/26 11:21:36;;;;;;;11.93;2.97;;;19.70;99.90;;;;;;4895787;29;20056;-82
2022/10/26 11:24:11;;;;;;;16.20;3.65;;;19.70;99.90;;;;;;4903474;29;20135;-82
2022/10/26 11:26:54;;;;;;;14.35;3.25;;;19.80;99.90;;;;;;4910543;29;20056;-82
2022/10/26 11:29:32;;;;;;;13.32;2.92;;;19.80;99.90;;;;;;4905825;29;20057;-84
2022/10/26 11:32:23;;;;;;;13.55;2.60;;;19.80;99.90;;;;;;4902236;29;20052;-83
2022/10/26 11:35:03;;;;;;;8.18;2.63;;;19.80;99.90;;;;;;4903594;29;20056;-84
2022/10/26 11:37:38;;;;;;;13.52;3.10;;;19.80;99.90;;;;;;4903127;29;20064;-83
2022/10/26 11:40:28;;;;;;;;;;;19.80;99.90;;;;;;4903452;29;20056;-83
2022/10/26 11:43:15;;;;;;;15.23;3.35;;;19.80;99.90;;;;;;4903275;29;20015;-84
2022/10/26 11:45:44;;;;;;;8.68;2.88;;;19.90;99.90;;;;;;4909292;29;20045;-84
2022/10/26 11:48:28;;;;;;;17.05;3.45;;;19.80;99.90;;;;;;4904375;29;20429;-83
2022/10/26 11:50:58;;;;;;;14.82;2.72;;;19.80;99.90;;;;;;4901708;29;20048;-84
2022/10/26 11:53:37;;;;;;;12.32;3.20;;;19.90;99.90;;;;;;4903354;29;20045;-84
2022/10/26 11:56:12;;;;;;;9.70;3.00;;;19.90;99.90;;;;;;4903971;29;20577;-83
2022/10/26 11:58:39;;;;;;;12.52;2.90;;;20.00;99.90;;;;;;4901219;29;20052;-83
2022/10/26 12:01:12;;;;;;;13.38;3.00;;;20.00;99.90;;;;;;4897869;29;20056;-82
2022/10/26 12:03:52;;;;;;;11.50;2.80;;;20.00;99.90;;;;;;4899038;29;20120;-83
2022/10/26 12:06:23;;;;;;;10.68;3.00;;;20.00;99.90;;;;;;4905335;29;20053;-82
2022/10/26 12:08:59;;;;;;;10.80;3.40;;;20.10;99.90;;;;;;4903938;29;20057;-83
2022/10/26 12:11:45;;;;;;;10.82;2.67;;;20.10;99.90;;;;;;4901701;29;20053;-82
2022/10/26 12:14:41;;;;;;;11.85;2.80;;;20.10;99.90;;;;;;4903902;29;20072;-83
2022/10/26 12:17:24;;;;;;;12.30;2.42;;;20.20;99.90;;;;;;4903555;29;20053;-84
2022/10/26 12:20:17;;;;;;;16.02;2.78;;;20.20;99.90;;;;;;4900110;29;20053;-83
2022/10/26 12:22:44;;;;;;;10.65;2.60;;;20.30;99.90;;;;;;4900645;29;20057;-81
2022/10/26 12:25:14;;;;;;;20.08;3.13;;;20.30;99.90;;;;;;4901408;29;20053;-84
2022/10/26 12:27:41;;;;;;;12.32;3.13;;;20.40;99.90;;;;;;4899464;29;20049;-86
2022/10/26 12:30:11;;;;;;;19.48;3.17;;;20.40;99.90;;;;;;4898087;29;20131;-85
2022/10/26 12:32:39;;;;;;;14.07;3.15;;;20.40;99.90;;;;;;4898615;29;20104;-85
2022/10/26 12:35:39;;;;;;;14.32;3.40;;;20.40;99.90;;;;;;4895545;29;20104;-85
2022/10/26 12:38:23;;;;;;;15.82;2.72;;;20.40;99.90;;;;;;4908949;29;20065;-86
2022/10/26 12:41:07;;;;;;;9.13;2.55;;;20.30;99.90;;;;;;4906870;29;20056;-85
2022/10/26 12:43:39;;;;;;;15.57;3.30;;;20.40;99.90;;;;;;4905540;29;20060;-86
2022/10/26 12:46:11;;;;;;;13.65;3.00;;;20.50;99.90;;;;;;4905073;29;20100;-85
2022/10/26 12:48:58;;;;;;;12.98;3.65;;;20.40;99.90;;;;;;4910144;29;20060;-86
2022/10/26 12:51:25;;;;;;;10.23;2.97;;;20.50;99.90;;;;;;4913519;29;20056;-86
2022/10/26 12:54:03;;;;;;;13.77;3.15;;;20.50;99.90;;;;;;4909828;29;20052;-86
2022/10/26 12:56:49;;;;;;;15.73;2.97;;;20.50;99.90;;;;;;4908602;29;20048;-86
2022/10/26 12:59:37;;;;;;;12.20;3.20;;;20.60;99.90;;;;;;4906409;29;20056;-85
2022/10/26 13:02:22;;;;;;;17.15;2.60;;;20.60;99.90;;;;;;4902664;29;20451;-85
2022/10/26 13:05:20;;;;;;;13.48;2.85;;;20.60;99.90;;;;;;4913304;29;20044;-85
2022/10/26 13:07:47;;;;;;;12.60;3.13;;;20.70;99.90;;;;;;4913846;29;20052;-85
2022/10/26 13:10:19;;;;;;;14.05;3.10;;;20.60;99.90;;;;;;4911499;29;20056;-85
2022/10/26 13:12:55;;;;;;;10.38;2.83;;;20.70;99.90;;;;;;4908801;29;20060;-85
2022/10/26 13:15:35;;;;;;;18.55;4.18;;;20.70;99.90;;;;;;4904253;29;20059;-86
2022/10/26 13:18:16;;;;;;;12.65;3.10;;;20.70;99.90;;;;;;4899851;29;20049;-86
2022/10/26 13:21:25;;;;;;;12.40;2.80;;;20.70;99.90;;;;;;4902726;29;20091;-85
2022/10/26 13:24:04;;;;;;;12.90;3.03;;;20.70;99.90;;;;;;4896524;29;20052;-86
2022/10/26 13:26:51;;;;;;;16.20;2.90;;;20.70;99.90;;;;;;4904416;29;20120;-86
2022/10/26 13:29:18;;;;;;;17.90;3.10;;;20.60;99.90;;;;;;4902500;29;20046;-86
2022/10/26 13:31:48;;;;;;;9.43;2.58;;;20.70;99.90;;;;;;4901849;29;20048;-86
2022/10/26 13:34:16;;;;;;;16.05;3.45;;;20.70;99.90;;;;;;4903358;29;20052;-85
2022/10/26 13:37:13;;;;;;;19.23;3.13;;;20.60;99.90;;;;;;4895017;29;20045;-86
2022/10/26 13:39:42;;;;;;;12.45;3.13;;;20.70;99.90;;;;;;4894750;29;20064;-85
2022/10/26 13:42:19;;;;;;;12.30;2.95;;;20.70;99.90;;;;;;4897447;29;20056;-85
2022/10/26 13:45:13;;;;;;;11.13;2.65;;;20.70;99.90;;;;;;4899708;29;20053;-85
2022/10/26 13:47:52;;;;;;;16.45;2.83;;;20.70;99.90;;;;;;4905580;29;20120;-85
2022/10/26 13:50:23;;;;;;;9.50;3.22;;;20.70;99.90;;;;;;4903396;29;20059;-85
2022/10/26 13:52:58;;;;;;;12.23;2.55;;;20.70;99.90;;;;;;4897654;29;20060;-83
2022/10/26 13:55:31;;;;;;;9.18;2.13;;;20.70;99.90;;;;;;4917071;29;20053;-84
2022/10/26 13:58:23;;;;;;;15.27;2.85;;;20.70;99.90;;;;;;4895098;29;20056;-86
2022/10/26 14:01:03;;;;;;;14.15;3.10;;;20.60;99.90;;;;;;4897342;29;20141;-83
2022/10/26 14:03:30;;;;;;;17.63;2.88;;;20.70;99.90;;;;;;4896046;29;20048;-85
2022/10/26 14:05:57;;;;;;;12.63;2.83;;;20.60;99.90;;;;;;4896405;29;20068;-84
2022/10/26 14:08:24;;;;;;;10.98;2.20;;;20.60;99.90;;;;;;4896706;29;20059;-83
2022/10/26 14:10:58;;;;;;;15.15;2.85;;;20.60;99.90;;;;;;4900257;29;20052;-84
2022/10/26 14:13:27;;;;;;;15.05;2.42;;;20.60;99.90;;;;;;4900344;29;20049;-83
2022/10/26 14:15:55;;;;;;;8.93;2.28;;;20.60;99.90;;;;;;4892115;29;20049;-83
2022/10/26 14:18:27;;;;;;;8.23;2.95;;;20.60;99.90;;;;;;4896561;29;20056;-82
2022/10/26 14:21:00;;;;;;;11.90;3.00;;;20.60;99.90;;;;;;4897687;29;20053;-84
2022/10/26 14:23:35;;;;;;;8.27;2.45;;;20.60;99.90;;;;;;4889470;29;20072;-82
2022/10/26 14:26:03;;;;;;;9.35;2.85;;;20.60;99.90;;;;;;4900892;29;20055;-82
2022/10/26 14:28:32;;;;;;;17.30;3.15;;;20.60;99.90;;;;;;4908724;29;20056;-84
2022/10/26 14:31:12;;;;;;;15.90;2.75;;;20.50;99.90;;;;;;4904900;29;20044;-81
2022/10/26 14:33:45;;;;;;;5.32;2.03;;;20.50;99.90;;;;;;4901726;29;20422;-83
2022/10/26 14:36:12;;;;;;;10.30;2.47;;;20.50;99.90;;;;;;4896632;29;20050;-83
2022/10/26 14:38:45;;;;;;;11.43;2.67;;;20.50;99.90;;;;;;4896611;29;20411;-83
2022/10/26 14:41:15;;;;;;;14.75;3.13;;;20.50;99.90;;;;;;4894233;29;20067;-83
2022/10/26 14:43:43;;;;;;;11.25;2.55;;;20.50;99.90;;;;;;4899663;29;20565;-84
2022/10/26 14:46:18;;;;;;;11.32;2.35;;;20.40;99.90;;;;;;4899842;29;20072;-81
2022/10/26 14:48:59;;;;;;;11.00;2.38;;;20.40;99.90;;;;;;4899867;29;20052;-82
2022/10/26 14:51:27;;;;;;;11.10;3.28;;;20.40;99.90;;;;;;4894962;29;20080;-81
2022/10/26 14:53:57;;;;;;;15.52;3.42;;;20.40;99.90;;;;;;4896037;29;20055;-82
2022/10/26 14:56:34;;;;;;;4.70;1.90;;;20.40;99.90;;;;;;4893199;29;20049;-81
2022/10/26 14:59:19;;;;;;;18.60;4.05;;;20.40;99.90;;;;;;4899230;29;20091;-82
2022/10/26 15:02:17;;;;;;;10.60;2.72;;;20.30;99.90;;;;;;4896983;29;20068;-81
2022/10/26 15:05:22;;;;;;;16.45;2.85;;;20.30;99.90;;;;;;4899944;29;20048;-81
2022/10/26 15:07:51;;;;;;;8.77;2.45;;;20.30;99.90;;;;;;4821224;29;20528;-83
2022/10/26 15:10:36;;;;;;;15.63;2.75;;;20.30;99.90;;;;;;4824984;29;20065;-83
2022/10/26 15:13:23;;;;;;;11.13;2.13;;;20.20;99.90;;;;;;4870511;29;20056;-83
2022/10/26 15:15:51;;;;;;;9.98;2.45;;;20.20;99.90;;;;;;4898414;29;20056;-81
2022/10/26 15:18:27;;;;;;;12.10;2.40;;;20.10;99.90;;;;;;4901869;29;20056;-84
2022/10/26 15:20:55;;;;;;;4.82;1.80;;;20.10;99.90;;;;;;4902586;29;20056;-83
2022/10/26 15:23:23;;;;;;;7.97;2.05;;;20.00;99.90;;;;;;4900911;29;20057;-83
2022/10/26 15:25:56;;;;;;;14.65;2.72;;;19.90;99.90;;;;;;4901417;29;20053;-83
2022/10/26 15:28:39;;;;;;;10.35;2.40;;;19.90;99.90;;;;;;4898665;29;20060;-83
2022/10/26 15:31:27;;;;;;;12.60;2.67;;;19.90;99.90;;;;;;4901351;29;20053;-83
2022/10/26 15:33:54;;;;;;;6.25;2.40;;;19.70;99.90;;;;;;4897955;29;20055;-83
2022/10/26 15:36:25;;;;;;;14.23;3.00;;;19.70;99.90;;;;;;4899286;29;20049;-81
2022/10/26 15:38:52;;;;;;;10.35;2.67;;;19.70;99.90;;;;;;4902013;29;20052;-83
2022/10/26 15:41:34;;;;;;;12.57;2.92;;;19.60;99.90;;;;;;4902580;29;20060;-84
2022/10/26 15:44:12;;;;;;;9.73;2.00;;;19.60;99.90;;;;;;4900814;29;20053;-82
2022/10/26 15:46:39;;;;;;;10.40;2.50;;;19.50;99.90;;;;;;4897185;29;20148;-84
2022/10/26 15:49:13;;;;;;;7.55;2.72;;;19.50;99.90;;;;;;4902537;29;20052;-84
2022/10/26 15:51:39;;;;;;;11.80;2.50;;;19.40;99.90;;;;;;4903458;29;20059;-83
2022/10/26 15:54:07;;;;;;;8.98;2.45;;;19.40;99.90;;;;;;4897566;29;20422;-84
2022/10/26 15:56:35;;;;;;;4.72;2.15;;;19.30;99.90;;;;;;4903244;29;20051;-84
2022/10/26 15:59:02;;;;;;;12.38;2.80;;;19.30;99.90;;;;;;4896761;29;20053;-84
2022/10/26 16:01:29;;;;;;;5.95;2.00;;;19.20;99.90;;;;;;4901293;29;20060;-82
2022/10/26 16:03:56;;;;;;;8.68;2.20;;;19.10;99.90;;;;;;4899695;29;20075;-84
2022/10/26 16:06:22;;;;;;;7.65;2.38;;;19.10;99.90;;;;;;4897729;29;20044;-84
2022/10/26 16:08:51;;;;;;;12.07;2.50;;;18.90;99.90;;;;;;4899238;29;20044;-83
2022/10/26 16:13:46;;;;;;;7.57;2.25;;;18.90;99.90;;;;;;4870264;29;20072;-84
2022/10/26 16:16:14;;;;;;;9.25;2.72;;;18.80;99.90;;;;;;4870055;29;20053;-86
2022/10/26 16:18:41;;;;;;;19.13;3.00;;;18.80;99.90;;;;;;4878691;29;20060;-86
2022/10/26 16:21:13;;;;;;;12.30;2.97;;;18.70;99.90;;;;;;4875801;29;20057;-85
2022/10/26 16:23:40;;;;;;;10.05;3.03;;;18.60;99.90;;;;;;4879450;29;20527;-84
2022/10/26 16:26:07;;;;;;;13.52;4.45;;;18.50;99.90;;;;;;4877027;29;20060;-85
2022/10/26 16:28:34;;;;;;;16.45;3.13;;;18.50;99.90;;;;;;4873465;29;20061;-86
2022/10/26 16:31:04;;;;;;;9.73;3.50;;;18.40;99.90;;;;;;4877398;29;20052;-84
2022/10/26 16:33:32;;;;;;;6.73;2.40;;;18.30;99.90;;;;;;4872249;29;20535;-83
2022/10/26 16:35:59;;;;;;;12.75;2.60;;;18.30;99.90;;;;;;4877884;29;20050;-84
2022/10/26 16:38:27;;;;;;;9.65;2.83;;;18.20;99.90;;;;;;4876385;29;20056;-84
2022/10/26 16:41:12;;;;;;;13.75;2.40;;;18.10;99.90;;;;;;4877187;29;20052;-85
2022/10/26 16:43:43;;;;;;;10.55;3.45;;;18.00;99.90;;;;;;4875074;29;20061;-83
2022/10/26 16:46:16;;;;;;;10.45;2.58;;;18.00;99.90;;;;;;4868695;29;20098;-86
2022/10/26 16:48:44;;;;;;;9.80;3.17;;;17.90;99.90;;;;;;4877960;29;20053;-85
2022/10/26 16:51:14;;;;;;;7.88;2.55;;;17.80;99.90;;;;;;4876424;29;20053;-83
2022/10/26 16:53:42;;;;;;;8.27;2.65;;;17.70;99.90;;;;;;4872360;29;20064;-83
2022/10/26 16:56:13;;;;;;;11.63;3.28;;;17.70;99.90;;;;;;4871577;29;20045;-86
2022/10/26 16:58:40;;;;;;;10.75;2.22;;;17.60;99.90;;;;;;4866860;29;20094;-83
2022/10/26 17:01:08;;;;;;;9.48;1.95;;;17.60;99.90;;;;;;4872643;29;20057;-86
2022/10/26 17:03:35;;;;;;;6.70;1.95;;;17.50;99.90;;;;;;4876732;29;20055;-86
2022/10/26 17:06:05;;;;;;;5.72;1.63;;;17.40;99.90;;;;;;4869962;29;20071;-84
2022/10/26 17:08:34;;;;;;;9.97;2.60;;;17.40;99.90;;;;;;4873593;29;20045;-85
2022/10/26 17:11:03;;;;;;;7.25;1.45;;;17.50;99.90;;;;;;4872928;29;20060;-84
2022/10/26 17:13:30;;;;;;;7.82;1.85;;;17.40;99.90;;;;;;4878522;29;20058;-84
2022/10/26 17:16:17;;;;;;;6.28;1.92;;;17.30;99.90;;;;;;4880656;29;20057;-85
2022/10/26 17:18:46;;;;;;;5.00;1.35;;;17.30;99.90;;;;;;4872112;29;20064;-86
2022/10/26 17:21:15;;;;;;;4.75;1.50;;;17.30;99.90;;;;;;4877738;29;20056;-84
2022/10/26 17:23:41;;;;;;;5.75;1.33;;;17.30;99.90;;;;;;4875785;29;20507;-84
2022/10/26 17:26:11;;;;;;;4.88;1.02;;;17.20;99.90;;;;;;4870469;29;20061;-86
2022/10/26 17:28:38;;;;;;;5.72;1.60;;;17.20;99.90;;;;;;4878591;29;20496;-83
2022/10/26 17:31:13;;;;;;;8.68;1.50;;;17.20;99.90;;;;;;4882049;29;20113;-86
2022/10/26 17:33:42;;;;;;;6.13;1.48;;;17.20;99.90;;;;;;4883699;29;20061;-87
2022/10/26 17:36:11;;;;;;;9.43;1.45;;;17.20;99.90;;;;;;4886764;29;20047;-85
2022/10/26 17:38:40;;;;;;;3.88;1.20;;;17.20;99.90;;;;;;4883309;29;20128;-83
2022/10/26 17:41:12;;;;;;;5.78;1.30;;;17.10;99.90;;;;;;4882020;29;20065;-83
2022/10/26 17:43:41;;;;;;;4.65;1.10;;;17.10;99.90;;;;;;4872571;29;20045;-84
2022/10/26 17:46:11;;;;;;;7.03;1.30;;;17.00;99.90;;;;;;4871405;29;20065;-84
2022/10/26 17:48:38;;;;;;;4.97;1.40;;;17.00;99.90;;;;;;4878166;29;20144;-86
2022/10/26 17:51:12;;;;;;;3.83;0.90;;;16.90;99.90;;;;;;4878412;29;20076;-86
2022/10/26 17:53:39;;;;;;;3.40;1.08;;;16.90;99.90;;;;;;4871519;29;20049;-84
2022/10/26 17:56:16;;;;;;;4.38;0.90;;;16.80;99.90;;;;;;4878200;29;20367;-84
2022/10/26 17:58:43;;;;;;;8.48;1.88;;;16.90;99.90;;;;;;4875505;29;20446;-84
2022/10/26 18:01:12;;;;;;;3.55;0.77;;;16.80;99.90;;;;;;4875624;29;20068;-84
2022/10/26 18:03:39;;;;;;;3.53;1.00;;;16.80;99.90;;;;;;4873494;29;20510;-83
2022/10/26 18:06:07;;;;;;;7.35;1.10;;;16.80;99.90;;;;;;4871529;29;20080;-85
2022/10/26 18:08:35;;;;;;;1.80;1.13;;;16.80;99.90;;;;;;4875521;29;20049;-85
2022/10/26 18:11:03;;;;;;;4.47;0.93;;;16.80;99.90;;;;;;4882923;29;20049;-84
2022/10/26 18:16:14;;;;;;;4.28;0.88;;;16.70;99.90;;;;;;4961673;23;20094;-85
2022/10/26 18:18:48;;;;;;;4.88;1.08;;;16.70;99.90;;;;;;4912571;29;20502;-84
2022/10/26 18:21:19;;;;;;;5.45;1.13;;;16.70;99.90;;;;;;4900498;29;20084;-83
2022/10/26 18:34:05;;;;;;;3.67;1.10;;;16.50;99.90;;;;;;1368855;26;20062;-84
2022/10/26 18:37:01;;;;;;;6.10;1.10;;;16.50;99.90;;;;;;4932133;29;20040;-85
2022/10/26 18:39:46;;;;;;;3.40;0.98;;;16.50;99.90;;;;;;4929560;29;20052;-86
2022/10/26 18:42:13;;;;;;;9.90;1.60;;;16.50;99.90;;;;;;4922166;29;20074;-85
2022/10/26 18:44:48;;;;;;;2.75;1.05;;;16.50;99.90;;;;;;4922419;29;20056;-87
2022/10/26 18:47:15;;;;;;;6.45;1.05;;;16.40;99.90;;;;;;4920942;29;20490;-86
2022/10/26 18:49:42;;;;;;;9.48;1.30;;;16.40;99.90;;;;;;4920102;29;20143;-84
2022/10/26 18:52:13;;;;;;;3.08;1.77;;;16.30;99.90;;;;;;4918014;29;20912;-86
2022/10/26 18:54:45;;;;;;;1.85;0.85;;;16.30;99.90;;;;;;4915933;29;20426;-83
2022/10/26 18:57:17;;;;;;;2.15;1.10;;;16.30;99.90;;;;;;4919174;29;20090;-85
2022/10/26 18:59:46;;;;;;;4.43;1.00;;;16.30;99.90;;;;;;4914472;29;20056;-83
2022/10/26 19:02:26;;;;;;;4.10;1.00;;;16.30;99.90;;;;;;4931000;29;20059;-84
2022/10/26 19:05:00;;;;;;;5.68;1.23;;;16.30;99.90;;;;;;4931353;29;20573;-86
2022/10/26 19:07:33;;;;;;;4.25;1.20;;;16.20;99.90;;;;;;4914807;29;20477;-84
2022/10/26 19:10:03;;;;;;;2.75;0.90;;;16.20;99.90;;;;;;4921721;29;21385;-84
2022/10/26 19:12:32;;;;;;;5.88;1.20;;;16.20;99.90;;;;;;4927165;29;20477;-87
2022/10/26 19:15:07;;;;;;;9.70;2.25;;;16.20;99.90;;;;;;4927137;29;20448;-86
2022/10/26 19:17:38;;;;;;;5.32;0.88;;;16.20;99.90;;;;;;4913910;29;20131;-84
2022/10/26 19:20:12;;;;;;;4.90;0.80;;;16.20;99.90;;;;;;4933888;29;20056;-86
2022/10/26 19:22:58;;;;;;;4.55;0.90;;;16.20;99.90;;;;;;4917135;29;20445;-85
2022/10/26 19:25:33;;;;;;;1.88;0.80;;;16.10;99.90;;;;;;4925471;29;20076;-85
2022/10/26 19:28:04;;;;;;;2.10;0.82;;;16.10;99.90;;;;;;4919503;29;20064;-83
2022/10/26 19:30:40;;;;;;;6.05;0.93;;;16.10;99.90;;;;;;4933966;29;20100;-85
2022/10/26 19:33:07;;;;;;;3.67;0.88;;;16.10;99.90;;;;;;4925304;29;20048;-83
2022/10/26 19:35:42;;;;;;;7.50;1.52;;;16.10;99.90;;;;;;4919602;29;20104;-83
2022/10/26 19:38:12;;;;;;;10.52;3.65;;;16.00;99.90;;;;;;4932105;29;21265;-84